createdAt,value
2017-12-05T00:01:36.176Z,13.30
2017-12-05T00:04:04.109Z,12.90
2017-12-05T00:06:32.511Z,13.00
2017-12-05T00:09:01.030Z,14.00
2017-12-05T00:11:28.688Z,12.40
2017-12-05T00:13:56.353Z,12.50
2017-12-05T00:16:24.078Z,11.60
2017-12-05T00:18:53.483Z,12.60
2017-12-05T00:21:21.208Z,12.10
2017-12-05T00:23:48.892Z,11.00
2017-12-05T00:26:16.683Z,11.63
2017-12-05T00:28:44.369Z,10.80
2017-12-05T00:31:12.386Z,11.10
2017-12-05T00:33:40.072Z,11.13
2017-12-05T00:36:07.910Z,12.63
2017-12-05T00:38:37.058Z,11.50
2017-12-05T00:41:05.016Z,10.50
2017-12-05T00:43:33.751Z,11.67
2017-12-05T00:46:01.650Z,11.47
2017-12-05T00:48:29.388Z,11.63
2017-12-05T00:50:57.322Z,11.23
2017-12-05T00:53:25.834Z,10.97
2017-12-05T00:55:57.431Z,11.40
2017-12-05T00:58:25.148Z,11.80
2017-12-05T01:00:53.040Z,11.83
2017-12-05T01:03:22.364Z,11.63
2017-12-05T01:05:50.078Z,11.33
2017-12-05T01:08:17.754Z,11.87
2017-12-05T01:10:47.106Z,13.10
2017-12-05T01:13:14.830Z,11.53
2017-12-05T01:15:42.482Z,11.10
2017-12-05T01:18:10.148Z,11.23
2017-12-05T01:20:39.629Z,12.30
2017-12-05T01:23:09.749Z,12.53
2017-12-05T01:25:37.434Z,11.40
2017-12-05T01:28:05.132Z,11.10
2017-12-05T01:30:33.969Z,11.70
2017-12-05T01:33:01.750Z,11.07
2017-12-05T01:35:29.404Z,11.20
2017-12-05T01:37:57.528Z,10.10
2017-12-05T01:40:27.087Z,11.60
2017-12-05T01:42:54.771Z,11.00
2017-12-05T01:45:22.493Z,10.97
2017-12-05T01:47:50.315Z,11.00
2017-12-05T01:50:17.983Z,10.67
2017-12-05T01:52:45.647Z,10.70
2017-12-05T01:55:14.482Z,10.60
2017-12-05T01:57:42.109Z,11.47
2017-12-05T02:00:09.770Z,11.00
2017-12-05T02:02:38.250Z,11.83
2017-12-05T02:05:05.947Z,11.73
2017-12-05T02:07:33.599Z,11.17
2017-12-05T02:10:01.297Z,11.63
2017-12-05T02:12:29.000Z,10.90
2017-12-05T02:14:56.667Z,10.33
2017-12-05T02:17:24.351Z,11.10
2017-12-05T02:19:54.620Z,9.87
2017-12-05T02:22:22.310Z,10.30
2017-12-05T02:24:49.962Z,9.80
2017-12-05T02:27:17.601Z,9.93
2017-12-05T02:29:45.329Z,10.30
2017-12-05T02:32:12.996Z,10.47
2017-12-05T02:34:40.668Z,11.10
2017-12-05T02:37:08.379Z,10.60
2017-12-05T02:39:36.123Z,11.13
2017-12-05T02:42:03.812Z,10.80
2017-12-05T02:44:31.472Z,9.97
2017-12-05T02:46:59.180Z,10.73
2017-12-05T02:49:26.815Z,10.73
2017-12-05T02:51:54.512Z,10.40
2017-12-05T02:54:22.160Z,11.23
2017-12-05T02:56:49.803Z,9.73
2017-12-05T02:59:17.510Z,10.17
2017-12-05T03:01:45.376Z,10.10
2017-12-05T03:04:13.173Z,10.13
2017-12-05T03:06:42.447Z,10.43
2017-12-05T03:09:10.261Z,10.07
2017-12-05T03:11:37.943Z,10.23
2017-12-05T03:14:05.608Z,10.40
2017-12-05T03:16:33.993Z,9.93
2017-12-05T03:19:01.663Z,10.87
2017-12-05T03:21:29.339Z,10.50
2017-12-05T03:23:58.833Z,10.47
2017-12-05T03:26:26.651Z,11.60
2017-12-05T03:28:54.319Z,10.50
2017-12-05T03:31:22.340Z,11.57
2017-12-05T03:33:50.019Z,10.90
2017-12-05T03:36:17.660Z,11.60
2017-12-05T03:38:46.091Z,11.87
2017-12-05T03:41:13.735Z,11.43
2017-12-05T03:43:41.563Z,11.40
2017-12-05T03:46:09.224Z,10.93
2017-12-05T03:48:36.911Z,10.67
2017-12-05T03:51:05.065Z,10.67
2017-12-05T03:53:32.783Z,11.23
2017-12-05T03:56:01.151Z,11.57
2017-12-05T03:58:30.621Z,14.15
2017-12-05T04:00:59.083Z,13.03
2017-12-05T04:03:26.805Z,11.40
2017-12-05T04:05:56.361Z,11.20
2017-12-05T04:08:26.726Z,11.73
2017-12-05T04:10:56.978Z,11.10
2017-12-05T04:13:24.727Z,11.30
2017-12-05T04:15:53.208Z,11.57
2017-12-05T04:18:21.175Z,11.13
2017-12-05T04:20:48.903Z,10.93
2017-12-05T04:23:16.613Z,11.90
2017-12-05T04:25:44.367Z,11.77
2017-12-05T04:28:12.084Z,11.23
2017-12-05T04:30:39.802Z,11.30
2017-12-05T04:33:07.459Z,11.27
2017-12-05T04:35:37.007Z,11.97
2017-12-05T04:38:04.720Z,11.23
2017-12-05T04:40:34.227Z,11.07
2017-12-05T04:43:04.543Z,11.77
2017-12-05T04:45:33.076Z,11.00
2017-12-05T04:48:00.738Z,11.43
2017-12-05T04:50:28.421Z,12.23
2017-12-05T04:52:56.127Z,11.40
2017-12-05T04:55:26.400Z,11.30
2017-12-05T04:57:55.968Z,11.40
2017-12-05T05:00:23.668Z,11.30
2017-12-05T05:02:51.504Z,10.77
2017-12-05T05:05:19.174Z,12.30
2017-12-05T05:07:48.552Z,10.80
2017-12-05T05:10:16.317Z,11.33
2017-12-05T05:12:43.994Z,10.47
2017-12-05T05:15:12.500Z,11.33
2017-12-05T05:17:41.132Z,10.93
2017-12-05T05:20:08.834Z,10.07
2017-12-05T05:22:36.865Z,10.57
2017-12-05T05:25:04.724Z,11.10
2017-12-05T05:27:34.006Z,11.40
2017-12-05T05:30:01.738Z,11.10
2017-12-05T05:32:29.473Z,11.00
2017-12-05T05:34:57.119Z,11.20
2017-12-05T05:37:24.798Z,10.00
2017-12-05T05:39:53.286Z,10.77
2017-12-05T05:42:21.042Z,9.73
2017-12-05T05:44:48.800Z,10.27
2017-12-05T05:47:16.471Z,10.80
2017-12-05T05:49:44.261Z,10.63
2017-12-05T05:52:12.332Z,9.77
2017-12-05T05:54:40.068Z,10.70
2017-12-05T05:57:08.050Z,10.50
2017-12-05T05:59:36.531Z,10.80
2017-12-05T06:02:04.332Z,10.50
2017-12-05T06:04:32.029Z,10.93
2017-12-05T06:06:59.716Z,10.00
2017-12-05T06:09:27.372Z,10.63
2017-12-05T06:11:55.640Z,11.67
2017-12-05T06:14:23.306Z,11.70
2017-12-05T06:16:52.724Z,10.73
2017-12-05T06:19:20.528Z,10.20
2017-12-05T06:21:48.354Z,10.37
2017-12-05T06:24:16.440Z,10.87
2017-12-05T06:26:44.146Z,10.30
2017-12-05T06:29:12.895Z,10.33
2017-12-05T06:31:40.624Z,11.30
2017-12-05T06:34:08.569Z,11.57
2017-12-05T06:36:36.256Z,10.60
2017-12-05T06:39:03.930Z,10.80
2017-12-05T06:41:31.582Z,10.50
2017-12-05T06:43:59.323Z,13.00
2017-12-05T06:46:27.780Z,11.10
2017-12-05T06:48:55.430Z,10.53
2017-12-05T06:51:23.143Z,10.37
2017-12-05T06:53:50.845Z,11.30
2017-12-05T06:56:18.502Z,10.87
2017-12-05T06:58:46.173Z,11.63
2017-12-05T07:01:13.800Z,11.17
2017-12-05T07:03:41.460Z,11.00
2017-12-05T07:06:10.844Z,10.97
2017-12-05T07:08:40.498Z,11.00
2017-12-05T07:11:08.178Z,11.00
2017-12-05T07:13:35.936Z,10.60
2017-12-05T07:16:05.227Z,10.53
2017-12-05T07:18:35.802Z,9.97
2017-12-05T07:21:05.356Z,11.07
2017-12-05T07:23:35.644Z,10.60
2017-12-05T07:26:03.322Z,11.17
2017-12-05T07:28:31.056Z,10.20
2017-12-05T07:30:59.562Z,10.40
2017-12-05T07:33:27.238Z,10.10
2017-12-05T07:35:54.900Z,10.13
2017-12-05T07:38:22.570Z,10.20
2017-12-05T07:40:51.007Z,11.10
2017-12-05T07:43:21.604Z,10.87
2017-12-05T07:45:49.276Z,10.27
2017-12-05T07:48:16.951Z,10.73
2017-12-05T07:50:47.179Z,10.40
2017-12-05T07:53:14.814Z,10.50
2017-12-05T07:55:42.493Z,11.20
2017-12-05T07:58:11.192Z,10.93
2017-12-05T08:00:38.926Z,10.20
2017-12-05T08:03:07.544Z,10.03
2017-12-05T08:05:35.304Z,9.63
2017-12-05T08:08:03.102Z,10.90
2017-12-05T08:10:30.874Z,10.00
2017-12-05T08:13:00.437Z,10.17
2017-12-05T08:15:28.153Z,10.00
2017-12-05T08:17:55.790Z,10.00
2017-12-05T08:20:25.247Z,11.20
2017-12-05T08:22:52.946Z,10.70
2017-12-05T08:25:20.994Z,9.67
2017-12-05T08:27:49.421Z,9.80
2017-12-05T08:30:19.853Z,9.70
2017-12-05T08:32:48.464Z,10.10
2017-12-05T08:35:17.797Z,10.43
2017-12-05T08:37:45.505Z,10.67
2017-12-05T08:40:14.958Z,10.60
2017-12-05T08:42:45.370Z,11.00
2017-12-05T08:45:13.107Z,12.00
2017-12-05T08:47:40.955Z,10.80
2017-12-05T08:50:10.430Z,11.10
2017-12-05T08:52:38.903Z,10.90
2017-12-05T08:55:06.557Z,11.53
2017-12-05T08:57:35.997Z,10.90
2017-12-05T09:00:05.401Z,11.70
2017-12-05T09:02:33.941Z,12.47
2017-12-05T09:05:03.417Z,11.77
2017-12-05T09:07:31.152Z,12.07
2017-12-05T09:10:00.819Z,11.10
2017-12-05T09:12:29.607Z,11.77
2017-12-05T09:15:00.059Z,11.60
2017-12-05T09:17:27.699Z,11.50
2017-12-05T09:19:56.077Z,13.20
2017-12-05T09:22:25.479Z,11.80
2017-12-05T09:24:53.203Z,11.83
2017-12-05T09:27:20.904Z,12.90
2017-12-05T09:29:51.249Z,11.13
2017-12-05T09:32:19.238Z,12.03
2017-12-05T09:34:46.931Z,11.57
2017-12-05T09:37:15.721Z,11.20
2017-12-05T09:39:43.381Z,12.57
2017-12-05T09:42:11.030Z,11.60
2017-12-05T09:44:40.277Z,12.07
2017-12-05T09:47:09.672Z,12.53
2017-12-05T09:49:37.470Z,12.70
2017-12-05T09:52:05.098Z,11.90
2017-12-05T09:54:34.580Z,10.50
2017-12-05T09:57:02.326Z,13.07
2017-12-05T09:59:30.800Z,11.63
2017-12-05T10:02:00.241Z,11.40
2017-12-05T10:04:27.940Z,14.50
2017-12-05T10:06:57.225Z,12.53
2017-12-05T10:09:24.904Z,12.40
2017-12-05T10:11:54.278Z,10.40
2017-12-05T10:14:21.982Z,13.63
2017-12-05T10:16:49.615Z,12.50
2017-12-05T10:19:17.410Z,12.53
2017-12-05T10:21:48.343Z,12.07
2017-12-05T10:24:16.039Z,11.70
2017-12-05T10:26:44.413Z,12.30
2017-12-05T10:29:14.686Z,11.10
2017-12-05T10:31:42.404Z,11.73
2017-12-05T10:34:10.193Z,10.03
2017-12-05T10:36:37.861Z,11.33
2017-12-05T10:39:05.557Z,11.03
2017-12-05T10:41:34.990Z,11.80
2017-12-05T10:44:02.789Z,11.77
2017-12-05T10:46:30.448Z,10.83
2017-12-05T10:48:58.907Z,10.67
2017-12-05T10:51:31.846Z,10.67
2017-12-05T10:54:01.290Z,10.03
2017-12-05T10:56:29.016Z,11.90
2017-12-05T10:58:59.277Z,11.40
2017-12-05T11:01:27.221Z,10.93
2017-12-05T11:03:54.896Z,10.90
2017-12-05T11:06:22.569Z,10.80
2017-12-05T11:08:50.308Z,10.90
2017-12-05T11:11:18.058Z,11.87
2017-12-05T11:13:45.755Z,10.37
2017-12-05T11:16:13.453Z,9.70
2017-12-05T11:18:43.050Z,10.30
2017-12-05T11:21:10.739Z,9.90
2017-12-05T11:23:38.381Z,10.47
2017-12-05T11:26:06.071Z,10.57
2017-12-05T11:28:35.541Z,10.20
2017-12-05T11:31:04.004Z,10.80
2017-12-05T11:33:32.500Z,10.63
2017-12-05T11:36:00.915Z,9.60
2017-12-05T11:38:30.903Z,9.93
2017-12-05T11:40:59.503Z,10.73
2017-12-05T11:43:28.792Z,10.43
2017-12-05T11:45:56.497Z,9.83
2017-12-05T11:48:25.784Z,10.50
2017-12-05T11:50:55.342Z,9.47
2017-12-05T11:53:23.108Z,9.77
2017-12-05T11:55:50.806Z,9.03
2017-12-05T11:58:21.136Z,10.30
2017-12-05T12:00:48.968Z,9.73
2017-12-05T12:03:19.241Z,10.00
2017-12-05T12:05:46.947Z,9.47
2017-12-05T12:08:15.614Z,9.87
2017-12-05T12:10:43.311Z,10.57
2017-12-05T12:13:10.996Z,10.20
2017-12-05T12:15:40.464Z,10.07
2017-12-05T12:18:10.030Z,9.83
2017-12-05T12:20:37.766Z,9.23
2017-12-05T12:23:05.546Z,9.53
2017-12-05T12:25:34.035Z,10.07
2017-12-05T12:28:01.905Z,10.00
2017-12-05T12:30:29.570Z,9.67
2017-12-05T12:32:57.988Z,9.60
2017-12-05T12:35:27.393Z,11.33
2017-12-05T12:37:55.071Z,10.07
2017-12-05T12:40:25.381Z,8.97
2017-12-05T12:42:55.756Z,9.53
2017-12-05T12:45:23.448Z,8.47
2017-12-05T12:47:52.915Z,9.47
2017-12-05T12:50:22.410Z,9.53
2017-12-05T12:52:51.914Z,9.70
2017-12-05T12:55:19.639Z,9.23
2017-12-05T12:57:47.312Z,10.30
2017-12-05T13:00:16.789Z,10.50
2017-12-05T13:02:44.480Z,9.97
2017-12-05T13:05:12.249Z,10.23
2017-12-05T13:07:39.907Z,10.50
2017-12-05T13:10:10.247Z,9.80
2017-12-05T13:12:40.709Z,9.90
2017-12-05T13:15:08.455Z,10.47
2017-12-05T13:17:37.745Z,8.83
2017-12-05T13:20:09.230Z,9.53
2017-12-05T13:22:36.900Z,9.80
2017-12-05T13:25:07.591Z,9.37
2017-12-05T13:27:36.102Z,9.50
2017-12-05T13:30:03.773Z,9.80
2017-12-05T13:32:31.610Z,10.93
2017-12-05T13:35:00.132Z,10.00
2017-12-05T13:37:28.580Z,9.20
2017-12-05T13:39:58.057Z,9.40
2017-12-05T13:42:26.468Z,8.63
2017-12-05T13:44:54.220Z,10.03
2017-12-05T13:47:24.494Z,10.20
2017-12-05T13:49:52.937Z,9.10
2017-12-05T13:52:22.322Z,9.50
2017-12-05T13:54:50.102Z,9.10
2017-12-05T13:57:18.524Z,9.50
2017-12-05T13:59:46.233Z,9.57
2017-12-05T14:02:16.067Z,9.80
2017-12-05T14:04:45.539Z,9.17
2017-12-05T14:07:14.021Z,8.90
2017-12-05T14:09:41.753Z,8.73
2017-12-05T14:12:09.432Z,9.43
2017-12-05T14:14:37.145Z,9.50
2017-12-05T14:17:07.551Z,8.73
2017-12-05T14:19:37.885Z,9.00
2017-12-05T14:22:09.697Z,9.30
2017-12-05T14:24:39.051Z,8.93
2017-12-05T14:27:06.946Z,8.80
2017-12-05T14:29:38.194Z,9.17
2017-12-05T14:32:07.490Z,8.33
2017-12-05T14:34:36.919Z,9.00
2017-12-05T14:37:08.554Z,8.70
2017-12-05T14:39:36.261Z,9.17
2017-12-05T14:42:03.938Z,8.27
2017-12-05T14:44:32.386Z,9.03
2017-12-05T14:47:02.382Z,9.33
2017-12-05T14:49:30.264Z,10.43
2017-12-05T14:52:00.992Z,9.07
2017-12-05T14:54:28.952Z,9.07
2017-12-05T14:56:56.646Z,9.47
2017-12-05T14:59:28.649Z,10.00
2017-12-05T15:01:59.128Z,9.97
2017-12-05T15:04:27.011Z,10.07
2017-12-05T15:06:54.737Z,10.40
2017-12-05T15:09:22.434Z,9.10
2017-12-05T15:11:52.792Z,10.10
2017-12-05T15:14:22.200Z,10.33
2017-12-05T15:16:51.520Z,11.00
2017-12-05T15:19:19.256Z,10.00
2017-12-05T15:21:47.124Z,10.30
2017-12-05T15:24:15.335Z,10.50
2017-12-05T15:26:43.403Z,10.17
2017-12-05T15:29:11.192Z,9.53
2017-12-05T15:31:42.740Z,10.27
2017-12-05T15:34:10.686Z,10.70
2017-12-05T15:36:41.181Z,11.40
2017-12-05T15:39:08.977Z,11.53
2017-12-05T15:41:36.643Z,10.43
2017-12-05T15:44:05.161Z,10.47
2017-12-05T15:46:33.593Z,10.90
2017-12-05T15:49:01.436Z,11.23
2017-12-05T15:51:29.166Z,10.87
2017-12-05T15:53:57.032Z,10.30
2017-12-05T15:56:24.693Z,10.37
2017-12-05T15:58:54.162Z,10.30
2017-12-05T16:01:23.773Z,10.00
2017-12-05T16:03:53.515Z,10.03
2017-12-05T16:06:21.212Z,10.53
2017-12-05T16:08:51.623Z,10.53
2017-12-05T16:11:20.091Z,10.50
2017-12-05T16:13:47.786Z,9.57
2017-12-05T16:16:15.449Z,10.87
2017-12-05T16:18:43.158Z,10.63
2017-12-05T16:21:11.662Z,10.53
2017-12-05T16:23:41.054Z,10.10
2017-12-05T16:26:11.401Z,10.27
2017-12-05T16:28:40.008Z,10.80
2017-12-05T16:31:09.944Z,9.43
2017-12-05T16:33:37.623Z,10.40
2017-12-05T16:36:07.071Z,10.57
2017-12-05T16:38:36.077Z,9.63
2017-12-05T16:41:03.801Z,9.80
2017-12-05T16:43:33.125Z,10.20
2017-12-05T16:46:00.988Z,9.57
2017-12-05T16:48:29.772Z,10.00
2017-12-05T16:51:00.031Z,10.63
2017-12-05T16:53:27.736Z,10.73
2017-12-05T16:55:57.137Z,11.73
2017-12-05T16:58:25.143Z,11.33
2017-12-05T17:00:52.858Z,10.83
2017-12-05T17:03:22.190Z,9.97
2017-12-05T17:05:49.899Z,10.83
2017-12-05T17:08:19.463Z,11.70
2017-12-05T17:10:48.921Z,10.90
2017-12-05T17:13:19.352Z,10.23
2017-12-05T17:15:47.129Z,11.17
2017-12-05T17:18:16.774Z,11.40
2017-12-05T17:20:46.353Z,11.30
2017-12-05T17:23:14.052Z,11.20
2017-12-05T17:25:45.596Z,11.77
2017-12-05T17:28:13.322Z,10.90
2017-12-05T17:30:41.207Z,11.57
2017-12-05T17:33:08.932Z,11.73
2017-12-05T17:35:36.718Z,11.73
2017-12-05T17:38:06.238Z,11.13
2017-12-05T17:40:36.578Z,11.47
2017-12-05T17:43:04.469Z,12.23
2017-12-05T17:45:33.797Z,11.53
2017-12-05T17:48:01.970Z,11.40
2017-12-05T17:50:32.829Z,11.27
2017-12-05T17:53:01.065Z,12.27
2017-12-05T17:55:29.713Z,12.47
2017-12-05T17:57:58.272Z,12.57
2017-12-05T18:00:28.812Z,12.77
2017-12-05T18:02:59.187Z,11.33
2017-12-05T18:05:28.552Z,12.30
2017-12-05T18:07:57.783Z,13.40
2017-12-05T18:10:27.623Z,12.77
2017-12-05T18:12:57.073Z,12.90
2017-12-05T18:15:25.921Z,12.67
2017-12-05T18:17:55.508Z,12.77
2017-12-05T18:20:26.158Z,12.10
2017-12-05T18:22:54.423Z,11.87
2017-12-05T18:25:23.050Z,12.30
2017-12-05T18:27:51.593Z,12.50
2017-12-05T18:30:19.393Z,13.47
2017-12-05T18:32:48.949Z,12.70
2017-12-05T18:35:16.825Z,12.50
2017-12-05T18:37:46.146Z,12.40
2017-12-05T18:40:15.095Z,12.07
2017-12-05T18:42:43.022Z,13.17
2017-12-05T18:45:12.733Z,12.27
2017-12-05T18:47:43.929Z,13.00
2017-12-05T18:50:11.959Z,12.90
2017-12-05T18:52:41.440Z,13.73
2017-12-05T18:55:11.049Z,15.17
2017-12-05T18:57:39.543Z,14.50
2017-12-05T19:00:11.383Z,13.87
2017-12-05T19:02:39.380Z,14.60
2017-12-05T19:05:08.389Z,13.30
2017-12-05T19:07:36.386Z,14.70
2017-12-05T19:10:04.238Z,13.37
2017-12-05T19:12:32.196Z,12.67
2017-12-05T19:15:00.805Z,13.60
2017-12-05T19:17:30.390Z,12.63
2017-12-05T19:19:58.290Z,13.60
2017-12-05T19:22:28.716Z,13.00
2017-12-05T19:24:57.280Z,13.20
2017-12-05T19:27:25.176Z,14.13
2017-12-05T19:29:53.137Z,13.83
2017-12-05T19:32:22.898Z,13.00
2017-12-05T19:34:52.891Z,11.70
2017-12-05T19:37:20.846Z,12.40
2017-12-05T19:39:50.397Z,11.87
2017-12-05T19:42:18.591Z,11.50
2017-12-05T19:44:46.583Z,13.30
2017-12-05T19:47:16.181Z,11.63
2017-12-05T19:49:44.977Z,12.70
2017-12-05T19:52:15.826Z,12.20
2017-12-05T19:54:43.596Z,11.57
2017-12-05T19:57:12.249Z,11.27
2017-12-05T19:59:41.477Z,10.03
2017-12-05T20:02:09.364Z,10.50
2017-12-05T20:04:37.232Z,10.23
2017-12-05T20:07:05.066Z,10.57
2017-12-05T20:09:32.894Z,11.20
2017-12-05T20:12:01.958Z,10.80
2017-12-05T20:14:29.805Z,10.50
2017-12-05T20:16:57.596Z,10.00
2017-12-05T20:19:25.380Z,9.70
2017-12-05T20:21:53.187Z,11.07
2017-12-05T20:24:20.919Z,10.47
2017-12-05T20:26:48.806Z,10.63
2017-12-05T20:29:16.653Z,10.63
2017-12-05T20:31:44.437Z,10.23
2017-12-05T20:34:12.266Z,9.93
2017-12-05T20:36:39.990Z,10.20
2017-12-05T20:39:08.700Z,10.00
2017-12-05T20:41:36.485Z,10.67
2017-12-05T20:44:04.621Z,9.97
2017-12-05T20:56:18.158Z,9.70
2017-12-05T20:58:46.100Z,9.70
2017-12-05T21:01:13.938Z,8.93
2017-12-05T21:03:41.823Z,9.50
2017-12-05T21:06:09.569Z,9.23
2017-12-05T21:08:37.977Z,9.40
2017-12-05T21:11:06.490Z,9.57
2017-12-05T21:13:34.755Z,10.40
2017-12-05T21:16:02.529Z,10.23
2017-12-05T21:18:30.295Z,9.70
2017-12-05T21:20:58.096Z,10.17
2017-12-05T21:23:26.895Z,10.50
2017-12-05T21:25:54.706Z,9.70
2017-12-05T21:28:22.439Z,9.00
2017-12-05T21:30:50.192Z,10.40
2017-12-05T21:33:17.903Z,9.50
2017-12-05T21:35:46.219Z,9.10
2017-12-05T21:38:14.741Z,10.82
2017-12-05T21:40:42.448Z,10.37
2017-12-05T21:43:10.153Z,10.10
2017-12-05T21:45:37.784Z,10.10
2017-12-05T21:48:05.411Z,10.13
2017-12-05T21:50:33.123Z,10.30
2017-12-05T21:53:00.762Z,10.90
2017-12-05T21:55:28.452Z,10.83
2017-12-05T21:57:56.105Z,11.07
2017-12-05T22:00:25.730Z,12.60
2017-12-05T22:02:53.378Z,11.80
2017-12-05T22:05:21.019Z,11.50
2017-12-05T22:07:48.654Z,11.50
2017-12-05T22:10:16.301Z,11.67
2017-12-05T22:12:43.923Z,10.97
2017-12-05T22:15:11.682Z,11.50
2017-12-05T22:17:39.295Z,12.97
2017-12-05T22:20:06.958Z,12.50
2017-12-05T22:22:34.618Z,12.40
2017-12-05T22:25:02.237Z,12.17
2017-12-05T22:27:30.245Z,12.53
2017-12-05T22:29:57.887Z,12.10
2017-12-05T22:32:25.534Z,12.90
2017-12-05T22:34:53.164Z,12.57
2017-12-05T22:37:20.801Z,11.80
2017-12-05T22:39:48.409Z,14.40
2017-12-05T22:42:16.032Z,13.87
2017-12-05T22:44:43.644Z,14.47
2017-12-05T22:47:11.244Z,12.00
2017-12-05T22:49:38.819Z,16.55
2017-12-05T22:52:06.484Z,13.90
2017-12-05T22:54:34.974Z,14.00
2017-12-05T22:57:02.599Z,14.77
2017-12-05T22:59:30.164Z,14.63
2017-12-05T23:01:57.758Z,13.27
2017-12-05T23:04:25.343Z,14.47
2017-12-05T23:06:52.951Z,12.70
2017-12-05T23:09:20.563Z,16.37
2017-12-05T23:11:48.267Z,14.60
2017-12-05T23:14:15.880Z,14.10
2017-12-05T23:16:43.629Z,15.40
2017-12-05T23:19:11.248Z,15.90
2017-12-05T23:21:38.881Z,14.60
2017-12-05T23:24:06.469Z,14.80
2017-12-05T23:26:34.033Z,15.00
2017-12-05T23:29:01.627Z,14.87
2017-12-05T23:31:29.214Z,15.17
2017-12-05T23:33:56.823Z,14.90
2017-12-05T23:36:24.423Z,15.70
2017-12-05T23:38:52.193Z,15.77
2017-12-05T23:41:19.828Z,14.80
2017-12-05T23:43:47.488Z,15.70
2017-12-05T23:46:15.105Z,14.97
2017-12-05T23:48:42.755Z,16.43
2017-12-05T23:51:10.337Z,16.60
2017-12-05T23:53:38.033Z,15.80
2017-12-05T23:56:05.753Z,15.47
2017-12-05T23:58:33.501Z,16.20
